aviador You're here:

CYSC Decoded Metar

SHERBROOKE in QC, CANADA
Report Time2017-07-26 21:00:00
UTC Time2017-07-26 22:32:20
Flight Rules Old
Wind220° at 07 kt
W.Decomp.*RWY 32: 0.9 kt HW 6.9 kt LCW
W.Rank220° ranks 10
Current wind is above 220° avg. (5.7)
Visibility9999 m
Phenomena:N/A
Clouds:Broken 070 Hf
Expected CloudBase > 4,000 ft AGL from Temp-Dew spread
Ceiling7,000 ft
Temp24°C (ISA +11)
Dew Point14°C (54% RH)
AAT22.8°C
QNH1019 hPa
Density Alt2,031 ft
Elevation791 ft
Report Wrong Elevation
Raw Report
CYSC 262100Z AUTO 22007KT 9SM BKN070 24/14 A3009 RMK SLP192
DENSITY ALT 1700FT=

Extra information for CYSC:More info

Metar Taf Metar & Taf Last 4 Metars F.Rules Stats Wind Profile Meteogram Temp Stats Airport Information Weather charts Add Link Nearby VenuesMetar ALERT Operation Metar Decoded Social comments